sensor_id;sensor_type;location;lat;lon;timestamp;P1;durP1;ratioP1;P2;durP2;ratioP2
67896;SDS011;54698;48.428;9.964;2022-08-03T00:01:43;5.28;;;2.63;;
67896;SDS011;54698;48.428;9.964;2022-08-03T00:04:09;6.00;;;2.70;;
67896;SDS011;54698;48.428;9.964;2022-08-03T00:06:35;5.82;;;3.30;;
67896;SDS011;54698;48.428;9.964;2022-08-03T00:09:03;6.32;;;3.33;;
67896;SDS011;54698;48.428;9.964;2022-08-03T00:11:30;6.53;;;3.42;;
67896;SDS011;54698;48.428;9.964;2022-08-03T00:13:56;7.88;;;3.05;;
67896;SDS011;54698;48.428;9.964;2022-08-03T00:16:22;7.00;;;3.03;;
67896;SDS011;54698;48.428;9.964;2022-08-03T00:18:48;8.07;;;3.17;;
67896;SDS011;54698;48.428;9.964;2022-08-03T00:21:14;5.85;;;3.20;;
67896;SDS011;54698;48.428;9.964;2022-08-03T00:23:39;6.65;;;3.65;;
67896;SDS011;54698;48.428;9.964;2022-08-03T00:26:06;7.65;;;3.88;;
67896;SDS011;54698;48.428;9.964;2022-08-03T00:28:32;7.85;;;3.70;;
67896;SDS011;54698;48.428;9.964;2022-08-03T00:30:58;7.97;;;3.47;;
67896;SDS011;54698;48.428;9.964;2022-08-03T00:33:24;7.80;;;3.13;;
67896;SDS011;54698;48.428;9.964;2022-08-03T00:35:50;8.32;;;3.33;;
67896;SDS011;54698;48.428;9.964;2022-08-03T00:38:16;7.88;;;3.38;;
67896;SDS011;54698;48.428;9.964;2022-08-03T00:40:42;7.70;;;4.18;;
67896;SDS011;54698;48.428;9.964;2022-08-03T00:43:09;7.82;;;3.92;;
67896;SDS011;54698;48.428;9.964;2022-08-03T00:45:35;7.43;;;3.53;;
67896;SDS011;54698;48.428;9.964;2022-08-03T00:48:05;7.07;;;3.35;;
67896;SDS011;54698;48.428;9.964;2022-08-03T00:50:34;7.55;;;3.70;;
67896;SDS011;54698;48.428;9.964;2022-08-03T00:53:04;7.55;;;3.63;;
67896;SDS011;54698;48.428;9.964;2022-08-03T00:55:31;9.60;;;4.60;;
67896;SDS011;54698;48.428;9.964;2022-08-03T00:57:58;7.13;;;3.90;;
67896;SDS011;54698;48.428;9.964;2022-08-03T01:00:27;7.93;;;3.97;;
67896;SDS011;54698;48.428;9.964;2022-08-03T01:02:53;7.63;;;3.65;;
67896;SDS011;54698;48.428;9.964;2022-08-03T01:05:19;7.43;;;4.03;;
67896;SDS011;54698;48.428;9.964;2022-08-03T01:07:50;9.05;;;3.63;;
67896;SDS011;54698;48.428;9.964;2022-08-03T01:10:27;7.50;;;4.40;;
67896;SDS011;54698;48.428;9.964;2022-08-03T01:13:02;6.30;;;3.42;;
67896;SDS011;54698;48.428;9.964;2022-08-03T01:15:42;6.80;;;3.83;;
67896;SDS011;54698;48.428;9.964;2022-08-03T01:18:14;9.77;;;4.88;;
67896;SDS011;54698;48.428;9.964;2022-08-03T01:20:45;7.25;;;4.38;;
67896;SDS011;54698;48.428;9.964;2022-08-03T01:26:21;7.38;;;4.10;;
67896;SDS011;54698;48.428;9.964;2022-08-03T01:29:08;7.38;;;3.92;;
67896;SDS011;54698;48.428;9.964;2022-08-03T01:32:00;6.13;;;3.30;;
67896;SDS011;54698;48.428;9.964;2022-08-03T01:34:32;7.05;;;3.70;;
67896;SDS011;54698;48.428;9.964;2022-08-03T01:37:06;7.47;;;4.22;;
67896;SDS011;54698;48.428;9.964;2022-08-03T01:39:35;9.25;;;4.07;;
67896;SDS011;54698;48.428;9.964;2022-08-03T01:42:03;8.50;;;3.63;;
67896;SDS011;54698;48.428;9.964;2022-08-03T01:44:33;6.47;;;3.63;;
67896;SDS011;54698;48.428;9.964;2022-08-03T01:49:33;7.18;;;3.45;;
67896;SDS011;54698;48.428;9.964;2022-08-03T01:52:04;10.65;;;4.20;;
67896;SDS011;54698;48.428;9.964;2022-08-03T01:54:31;7.15;;;4.00;;
67896;SDS011;54698;48.428;9.964;2022-08-03T01:57:05;7.05;;;4.10;;
67896;SDS011;54698;48.428;9.964;2022-08-03T01:59:32;7.47;;;4.30;;
67896;SDS011;54698;48.428;9.964;2022-08-03T02:02:01;8.18;;;4.30;;
67896;SDS011;54698;48.428;9.964;2022-08-03T02:04:28;9.93;;;5.00;;
67896;SDS011;54698;48.428;9.964;2022-08-03T02:06:55;8.23;;;5.13;;
67896;SDS011;54698;48.428;9.964;2022-08-03T02:09:23;7.82;;;4.28;;
67896;SDS011;54698;48.428;9.964;2022-08-03T02:11:51;9.48;;;4.88;;
67896;SDS011;54698;48.428;9.964;2022-08-03T02:14:18;9.50;;;4.35;;
67896;SDS011;54698;48.428;9.964;2022-08-03T02:16:47;8.00;;;4.22;;
67896;SDS011;54698;48.428;9.964;2022-08-03T02:19:13;7.18;;;4.43;;
67896;SDS011;54698;48.428;9.964;2022-08-03T02:21:41;7.82;;;4.97;;
67896;SDS011;54698;48.428;9.964;2022-08-03T02:24:09;7.15;;;4.45;;
67896;SDS011;54698;48.428;9.964;2022-08-03T02:26:35;8.38;;;5.40;;
67896;SDS011;54698;48.428;9.964;2022-08-03T02:29:04;8.00;;;4.20;;
67896;SDS011;54698;48.428;9.964;2022-08-03T02:31:36;8.13;;;4.57;;
67896;SDS011;54698;48.428;9.964;2022-08-03T02:34:05;8.88;;;4.95;;
67896;SDS011;54698;48.428;9.964;2022-08-03T02:36:36;9.50;;;5.03;;
67896;SDS011;54698;48.428;9.964;2022-08-03T02:39:03;11.52;;;4.95;;
67896;SDS011;54698;48.428;9.964;2022-08-03T02:41:31;11.23;;;4.75;;
67896;SDS011;54698;48.428;9.964;2022-08-03T02:44:01;9.07;;;4.68;;
67896;SDS011;54698;48.428;9.964;2022-08-03T02:46:33;7.43;;;4.00;;
67896;SDS011;54698;48.428;9.964;2022-08-03T02:49:02;8.60;;;4.82;;
67896;SDS011;54698;48.428;9.964;2022-08-03T02:51:31;9.32;;;4.53;;
67896;SDS011;54698;48.428;9.964;2022-08-03T02:53:59;10.68;;;3.95;;
67896;SDS011;54698;48.428;9.964;2022-08-03T02:56:27;7.60;;;4.43;;
67896;SDS011;54698;48.428;9.964;2022-08-03T02:58:54;7.80;;;3.90;;
67896;SDS011;54698;48.428;9.964;2022-08-03T03:01:23;11.10;;;4.22;;
67896;SDS011;54698;48.428;9.964;2022-08-03T03:03:52;7.25;;;3.95;;
67896;SDS011;54698;48.428;9.964;2022-08-03T03:06:21;6.53;;;3.80;;
67896;SDS011;54698;48.428;9.964;2022-08-03T03:08:49;7.13;;;3.92;;
67896;SDS011;54698;48.428;9.964;2022-08-03T03:11:17;9.05;;;4.03;;
67896;SDS011;54698;48.428;9.964;2022-08-03T03:13:45;9.63;;;4.32;;
67896;SDS011;54698;48.428;9.964;2022-08-03T03:16:13;7.22;;;3.70;;
67896;SDS011;54698;48.428;9.964;2022-08-03T03:18:41;10.02;;;4.07;;
67896;SDS011;54698;48.428;9.964;2022-08-03T03:21:09;7.93;;;4.20;;
67896;SDS011;54698;48.428;9.964;2022-08-03T03:23:38;8.07;;;3.45;;
67896;SDS011;54698;48.428;9.964;2022-08-03T03:26:05;7.38;;;4.47;;
67896;SDS011;54698;48.428;9.964;2022-08-03T03:28:32;8.75;;;4.45;;
67896;SDS011;54698;48.428;9.964;2022-08-03T03:30:59;9.93;;;4.57;;
67896;SDS011;54698;48.428;9.964;2022-08-03T03:33:25;9.45;;;4.25;;
67896;SDS011;54698;48.428;9.964;2022-08-03T03:35:51;7.22;;;4.32;;
67896;SDS011;54698;48.428;9.964;2022-08-03T03:38:17;8.40;;;4.25;;
67896;SDS011;54698;48.428;9.964;2022-08-03T03:40:45;9.05;;;4.82;;
67896;SDS011;54698;48.428;9.964;2022-08-03T03:43:12;8.43;;;4.88;;
67896;SDS011;54698;48.428;9.964;2022-08-03T03:45:39;7.95;;;4.50;;
67896;SDS011;54698;48.428;9.964;2022-08-03T03:48:06;7.80;;;4.65;;
67896;SDS011;54698;48.428;9.964;2022-08-03T03:50:33;9.70;;;4.47;;
67896;SDS011;54698;48.428;9.964;2022-08-03T03:53:01;7.72;;;4.38;;
67896;SDS011;54698;48.428;9.964;2022-08-03T03:55:27;7.72;;;4.43;;
67896;SDS011;54698;48.428;9.964;2022-08-03T03:57:55;7.82;;;4.32;;
67896;SDS011;54698;48.428;9.964;2022-08-03T04:00:21;8.88;;;4.72;;
67896;SDS011;54698;48.428;9.964;2022-08-03T04:02:47;9.52;;;4.65;;
67896;SDS011;54698;48.428;9.964;2022-08-03T04:05:14;9.25;;;5.13;;
67896;SDS011;54698;48.428;9.964;2022-08-03T04:07:41;7.75;;;4.32;;
67896;SDS011;54698;48.428;9.964;2022-08-03T04:10:19;7.97;;;4.50;;
67896;SDS011;54698;48.428;9.964;2022-08-03T04:12:47;7.68;;;4.30;;
67896;SDS011;54698;48.428;9.964;2022-08-03T04:15:18;9.25;;;4.70;;
67896;SDS011;54698;48.428;9.964;2022-08-03T04:17:47;10.10;;;5.18;;
67896;SDS011;54698;48.428;9.964;2022-08-03T04:20:15;9.77;;;4.70;;
67896;SDS011;54698;48.428;9.964;2022-08-03T04:22:42;8.15;;;4.82;;
67896;SDS011;54698;48.428;9.964;2022-08-03T04:25:08;8.82;;;4.93;;
67896;SDS011;54698;48.428;9.964;2022-08-03T04:27:39;7.22;;;4.40;;
67896;SDS011;54698;48.428;9.964;2022-08-03T04:30:06;8.05;;;4.90;;
67896;SDS011;54698;48.428;9.964;2022-08-03T04:32:35;8.82;;;4.47;;
67896;SDS011;54698;48.428;9.964;2022-08-03T04:35:02;7.78;;;4.35;;
67896;SDS011;54698;48.428;9.964;2022-08-03T04:37:32;7.95;;;3.80;;
67896;SDS011;54698;48.428;9.964;2022-08-03T04:40:05;10.70;;;4.15;;
67896;SDS011;54698;48.428;9.964;2022-08-03T04:42:34;7.18;;;4.00;;
67896;SDS011;54698;48.428;9.964;2022-08-03T04:45:02;7.55;;;4.25;;
67896;SDS011;54698;48.428;9.964;2022-08-03T04:47:31;8.00;;;4.07;;
67896;SDS011;54698;48.428;9.964;2022-08-03T04:49:59;6.85;;;3.67;;
67896;SDS011;54698;48.428;9.964;2022-08-03T04:52:26;6.30;;;3.55;;
67896;SDS011;54698;48.428;9.964;2022-08-03T04:54:52;8.70;;;4.93;;
67896;SDS011;54698;48.428;9.964;2022-08-03T04:57:18;7.95;;;3.90;;
67896;SDS011;54698;48.428;9.964;2022-08-03T04:59:43;7.07;;;3.17;;
67896;SDS011;54698;48.428;9.964;2022-08-03T05:02:09;8.18;;;4.05;;
67896;SDS011;54698;48.428;9.964;2022-08-03T05:04:35;7.18;;;3.95;;
67896;SDS011;54698;48.428;9.964;2022-08-03T05:07:02;6.38;;;3.28;;
67896;SDS011;54698;48.428;9.964;2022-08-03T05:09:28;5.72;;;2.30;;
67896;SDS011;54698;48.428;9.964;2022-08-03T05:11:54;7.47;;;3.83;;
67896;SDS011;54698;48.428;9.964;2022-08-03T05:14:20;8.90;;;3.20;;
67896;SDS011;54698;48.428;9.964;2022-08-03T05:16:45;5.63;;;2.92;;
67896;SDS011;54698;48.428;9.964;2022-08-03T05:19:11;8.40;;;3.28;;
67896;SDS011;54698;48.428;9.964;2022-08-03T05:21:37;7.38;;;3.13;;
67896;SDS011;54698;48.428;9.964;2022-08-03T05:24:05;6.53;;;3.50;;
67896;SDS011;54698;48.428;9.964;2022-08-03T05:26:31;7.43;;;3.45;;
67896;SDS011;54698;48.428;9.964;2022-08-03T05:28:57;6.15;;;3.10;;
67896;SDS011;54698;48.428;9.964;2022-08-03T05:31:23;6.85;;;3.30;;
67896;SDS011;54698;48.428;9.964;2022-08-03T05:33:49;7.15;;;3.50;;
67896;SDS011;54698;48.428;9.964;2022-08-03T05:36:15;8.43;;;3.80;;
67896;SDS011;54698;48.428;9.964;2022-08-03T05:38:40;9.75;;;3.50;;
67896;SDS011;54698;48.428;9.964;2022-08-03T05:41:08;6.65;;;3.38;;
67896;SDS011;54698;48.428;9.964;2022-08-03T05:43:33;9.90;;;3.30;;
67896;SDS011;54698;48.428;9.964;2022-08-03T05:45:59;6.43;;;3.20;;
67896;SDS011;54698;48.428;9.964;2022-08-03T05:48:25;8.55;;;3.17;;
67896;SDS011;54698;48.428;9.964;2022-08-03T05:50:51;5.68;;;3.00;;
67896;SDS011;54698;48.428;9.964;2022-08-03T05:53:17;6.55;;;3.00;;
67896;SDS011;54698;48.428;9.964;2022-08-03T05:55:42;6.38;;;3.30;;
67896;SDS011;54698;48.428;9.964;2022-08-03T05:58:09;7.60;;;3.63;;
67896;SDS011;54698;48.428;9.964;2022-08-03T06:00:35;6.97;;;3.10;;
67896;SDS011;54698;48.428;9.964;2022-08-03T06:03:01;6.93;;;3.88;;
67896;SDS011;54698;48.428;9.964;2022-08-03T06:05:27;6.47;;;3.47;;
67896;SDS011;54698;48.428;9.964;2022-08-03T06:07:53;6.90;;;3.55;;
67896;SDS011;54698;48.428;9.964;2022-08-03T06:10:19;7.43;;;3.67;;
67896;SDS011;54698;48.428;9.964;2022-08-03T06:12:45;6.80;;;3.13;;
67896;SDS011;54698;48.428;9.964;2022-08-03T06:15:12;6.82;;;3.05;;
67896;SDS011;54698;48.428;9.964;2022-08-03T06:17:44;6.60;;;3.00;;
67896;SDS011;54698;48.428;9.964;2022-08-03T06:20:11;6.45;;;2.72;;
67896;SDS011;54698;48.428;9.964;2022-08-03T06:22:37;8.00;;;2.85;;
67896;SDS011;54698;48.428;9.964;2022-08-03T06:25:03;5.38;;;2.45;;
67896;SDS011;54698;48.428;9.964;2022-08-03T06:27:30;6.30;;;2.70;;
67896;SDS011;54698;48.428;9.964;2022-08-03T06:29:56;5.65;;;2.55;;
67896;SDS011;54698;48.428;9.964;2022-08-03T06:32:23;7.18;;;2.88;;
67896;SDS011;54698;48.428;9.964;2022-08-03T06:34:49;6.55;;;2.50;;
67896;SDS011;54698;48.428;9.964;2022-08-03T06:39:45;4.75;;;2.13;;
67896;SDS011;54698;48.428;9.964;2022-08-03T06:42:13;6.35;;;2.58;;
67896;SDS011;54698;48.428;9.964;2022-08-03T06:44:39;5.32;;;2.30;;
67896;SDS011;54698;48.428;9.964;2022-08-03T06:47:05;5.72;;;2.55;;
67896;SDS011;54698;48.428;9.964;2022-08-03T06:49:32;7.00;;;2.03;;
67896;SDS011;54698;48.428;9.964;2022-08-03T06:51:57;11.52;;;2.40;;
67896;SDS011;54698;48.428;9.964;2022-08-03T06:56:59;5.10;;;1.88;;
67896;SDS011;54698;48.428;9.964;2022-08-03T06:59:25;5.15;;;1.58;;
67896;SDS011;54698;48.428;9.964;2022-08-03T07:01:51;5.85;;;1.75;;
67896;SDS011;54698;48.428;9.964;2022-08-03T07:04:17;5.47;;;1.88;;
67896;SDS011;54698;48.428;9.964;2022-08-03T07:06:44;5.90;;;1.60;;
67896;SDS011;54698;48.428;9.964;2022-08-03T07:09:10;8.38;;;1.90;;
67896;SDS011;54698;48.428;9.964;2022-08-03T07:11:36;6.75;;;1.70;;
67896;SDS011;54698;48.428;9.964;2022-08-03T07:14:02;4.03;;;1.50;;
67896;SDS011;54698;48.428;9.964;2022-08-03T07:16:27;3.25;;;1.40;;
67896;SDS011;54698;48.428;9.964;2022-08-03T07:18:53;2.92;;;1.00;;
67896;SDS011;54698;48.428;9.964;2022-08-03T07:21:19;5.10;;;1.50;;
67896;SDS011;54698;48.428;9.964;2022-08-03T07:23:46;4.15;;;1.50;;
67896;SDS011;54698;48.428;9.964;2022-08-03T07:26:12;5.90;;;1.73;;
67896;SDS011;54698;48.428;9.964;2022-08-03T07:28:38;3.17;;;1.27;;
67896;SDS011;54698;48.428;9.964;2022-08-03T07:31:03;4.25;;;1.65;;
67896;SDS011;54698;48.428;9.964;2022-08-03T07:33:29;4.95;;;1.10;;
67896;SDS011;54698;48.428;9.964;2022-08-03T07:35:55;3.78;;;1.20;;
67896;SDS011;54698;48.428;9.964;2022-08-03T07:38:21;4.53;;;1.58;;
67896;SDS011;54698;48.428;9.964;2022-08-03T07:40:49;5.85;;;1.40;;
67896;SDS011;54698;48.428;9.964;2022-08-03T07:43:15;4.30;;;1.50;;
67896;SDS011;54698;48.428;9.964;2022-08-03T07:45:41;3.70;;;1.20;;
67896;SDS011;54698;48.428;9.964;2022-08-03T07:48:07;4.45;;;1.58;;
67896;SDS011;54698;48.428;9.964;2022-08-03T07:50:32;3.45;;;1.05;;
67896;SDS011;54698;48.428;9.964;2022-08-03T07:52:58;4.07;;;2.10;;
67896;SDS011;54698;48.428;9.964;2022-08-03T07:55:24;6.20;;;1.33;;
67896;SDS011;54698;48.428;9.964;2022-08-03T07:58:02;2.15;;;0.88;;
67896;SDS011;54698;48.428;9.964;2022-08-03T08:00:30;2.13;;;1.00;;
67896;SDS011;54698;48.428;9.964;2022-08-03T08:02:56;2.17;;;1.02;;
67896;SDS011;54698;48.428;9.964;2022-08-03T08:05:22;3.65;;;1.05;;
67896;SDS011;54698;48.428;9.964;2022-08-03T08:07:48;5.05;;;1.13;;
67896;SDS011;54698;48.428;9.964;2022-08-03T08:10:14;4.03;;;1.35;;
67896;SDS011;54698;48.428;9.964;2022-08-03T08:12:40;2.97;;;1.08;;
67896;SDS011;54698;48.428;9.964;2022-08-03T08:15:08;2.65;;;1.10;;
67896;SDS011;54698;48.428;9.964;2022-08-03T08:17:40;2.97;;;0.90;;
67896;SDS011;54698;48.428;9.964;2022-08-03T08:20:07;3.42;;;1.30;;
67896;SDS011;54698;48.428;9.964;2022-08-03T08:22:34;4.80;;;1.55;;
67896;SDS011;54698;48.428;9.964;2022-08-03T08:25:00;2.45;;;0.80;;
67896;SDS011;54698;48.428;9.964;2022-08-03T08:27:26;3.05;;;1.00;;
67896;SDS011;54698;48.428;9.964;2022-08-03T08:29:52;2.05;;;0.80;;
67896;SDS011;54698;48.428;9.964;2022-08-03T08:32:19;3.25;;;1.15;;
67896;SDS011;54698;48.428;9.964;2022-08-03T08:34:45;3.35;;;1.00;;
67896;SDS011;54698;48.428;9.964;2022-08-03T08:37:11;3.45;;;1.20;;
67896;SDS011;54698;48.428;9.964;2022-08-03T08:39:37;2.90;;;0.93;;
67896;SDS011;54698;48.428;9.964;2022-08-03T08:42:02;2.83;;;0.90;;
67896;SDS011;54698;48.428;9.964;2022-08-03T08:44:28;5.50;;;1.10;;
67896;SDS011;54698;48.428;9.964;2022-08-03T08:46:54;2.70;;;1.00;;
67896;SDS011;54698;48.428;9.964;2022-08-03T08:49:25;6.18;;;1.25;;
67896;SDS011;54698;48.428;9.964;2022-08-03T08:51:53;2.33;;;0.90;;
67896;SDS011;54698;48.428;9.964;2022-08-03T08:54:22;2.42;;;0.80;;
67896;SDS011;54698;48.428;9.964;2022-08-03T08:56:50;3.97;;;1.10;;
67896;SDS011;54698;48.428;9.964;2022-08-03T08:59:17;6.15;;;1.30;;
67896;SDS011;54698;48.428;9.964;2022-08-03T09:01:44;4.60;;;0.88;;
67896;SDS011;54698;48.428;9.964;2022-08-03T09:04:09;3.33;;;1.00;;
67896;SDS011;54698;48.428;9.964;2022-08-03T09:06:37;2.40;;;0.93;;
67896;SDS011;54698;48.428;9.964;2022-08-03T09:09:03;3.15;;;1.10;;
67896;SDS011;54698;48.428;9.964;2022-08-03T09:11:30;4.80;;;1.23;;
67896;SDS011;54698;48.428;9.964;2022-08-03T09:13:57;5.47;;;1.10;;
67896;SDS011;54698;48.428;9.964;2022-08-03T09:16:23;2.50;;;0.90;;
67896;SDS011;54698;48.428;9.964;2022-08-03T09:18:49;3.45;;;0.90;;
67896;SDS011;54698;48.428;9.964;2022-08-03T09:21:21;2.70;;;0.90;;
67896;SDS011;54698;48.428;9.964;2022-08-03T09:23:50;3.47;;;1.15;;
67896;SDS011;54698;48.428;9.964;2022-08-03T09:26:21;2.25;;;0.90;;
67896;SDS011;54698;48.428;9.964;2022-08-03T09:28:53;4.80;;;1.15;;
67896;SDS011;54698;48.428;9.964;2022-08-03T09:33:54;3.25;;;1.08;;
67896;SDS011;54698;48.428;9.964;2022-08-03T09:36:32;4.00;;;1.52;;
67896;SDS011;54698;48.428;9.964;2022-08-03T09:39:04;3.95;;;1.30;;
67896;SDS011;54698;48.428;9.964;2022-08-03T09:41:32;4.20;;;1.10;;
67896;SDS011;54698;48.428;9.964;2022-08-03T09:43:58;3.80;;;1.02;;
67896;SDS011;54698;48.428;9.964;2022-08-03T09:46:24;4.07;;;1.38;;
67896;SDS011;54698;48.428;9.964;2022-08-03T09:48:50;3.53;;;1.00;;
67896;SDS011;54698;48.428;9.964;2022-08-03T09:51:16;5.60;;;1.20;;
67896;SDS011;54698;48.428;9.964;2022-08-03T09:53:48;2.35;;;0.93;;
67896;SDS011;54698;48.428;9.964;2022-08-03T09:56:15;4.68;;;1.10;;
67896;SDS011;54698;48.428;9.964;2022-08-03T09:58:43;4.53;;;2.30;;
67896;SDS011;54698;48.428;9.964;2022-08-03T10:01:11;2.78;;;1.20;;
67896;SDS011;54698;48.428;9.964;2022-08-03T10:03:38;1.73;;;0.80;;
67896;SDS011;54698;48.428;9.964;2022-08-03T10:06:13;3.50;;;1.02;;
67896;SDS011;54698;48.428;9.964;2022-08-03T10:08:40;2.72;;;0.80;;
67896;SDS011;54698;48.428;9.964;2022-08-03T10:11:06;2.70;;;0.82;;
67896;SDS011;54698;48.428;9.964;2022-08-03T10:13:33;3.33;;;1.00;;
67896;SDS011;54698;48.428;9.964;2022-08-03T10:16:01;3.83;;;1.10;;
67896;SDS011;54698;48.428;9.964;2022-08-03T10:18:26;2.92;;;0.85;;
67896;SDS011;54698;48.428;9.964;2022-08-03T10:20:53;3.08;;;1.00;;
67896;SDS011;54698;48.428;9.964;2022-08-03T10:23:23;4.13;;;1.20;;
67896;SDS011;54698;48.428;9.964;2022-08-03T10:25:51;2.72;;;0.85;;
67896;SDS011;54698;48.428;9.964;2022-08-03T10:28:22;2.55;;;0.70;;
67896;SDS011;54698;48.428;9.964;2022-08-03T10:30:51;2.95;;;1.00;;
67896;SDS011;54698;48.428;9.964;2022-08-03T10:33:19;4.88;;;1.10;;
67896;SDS011;54698;48.428;9.964;2022-08-03T10:35:49;3.50;;;1.20;;
67896;SDS011;54698;48.428;9.964;2022-08-03T10:38:22;3.45;;;1.00;;
67896;SDS011;54698;48.428;9.964;2022-08-03T10:40:53;3.50;;;1.00;;
67896;SDS011;54698;48.428;9.964;2022-08-03T10:43:20;4.20;;;1.00;;
67896;SDS011;54698;48.428;9.964;2022-08-03T10:45:53;2.20;;;0.90;;
67896;SDS011;54698;48.428;9.964;2022-08-03T10:48:20;3.22;;;0.88;;
67896;SDS011;54698;48.428;9.964;2022-08-03T10:50:47;3.15;;;0.90;;
67896;SDS011;54698;48.428;9.964;2022-08-03T10:53:14;3.17;;;0.90;;
67896;SDS011;54698;48.428;9.964;2022-08-03T10:55:40;2.45;;;0.90;;
67896;SDS011;54698;48.428;9.964;2022-08-03T10:58:08;5.22;;;0.90;;
67896;SDS011;54698;48.428;9.964;2022-08-03T11:00:48;2.85;;;0.90;;
67896;SDS011;54698;48.428;9.964;2022-08-03T11:03:16;3.33;;;0.90;;
67896;SDS011;54698;48.428;9.964;2022-08-03T11:05:42;3.13;;;0.90;;
67896;SDS011;54698;48.428;9.964;2022-08-03T11:08:29;2.55;;;0.88;;
67896;SDS011;54698;48.428;9.964;2022-08-03T11:10:58;2.50;;;0.82;;
67896;SDS011;54698;48.428;9.964;2022-08-03T11:13:27;2.45;;;0.82;;
67896;SDS011;54698;48.428;9.964;2022-08-03T11:15:56;2.38;;;0.70;;
67896;SDS011;54698;48.428;9.964;2022-08-03T11:18:26;3.70;;;0.82;;
67896;SDS011;54698;48.428;9.964;2022-08-03T11:20:53;4.05;;;0.75;;
67896;SDS011;54698;48.428;9.964;2022-08-03T11:26:10;2.63;;;0.90;;
67896;SDS011;54698;48.428;9.964;2022-08-03T11:28:38;2.75;;;0.93;;
67896;SDS011;54698;48.428;9.964;2022-08-03T11:34:12;2.90;;;0.80;;
67896;SDS011;54698;48.428;9.964;2022-08-03T11:39:45;4.15;;;1.05;;
67896;SDS011;54698;48.428;9.964;2022-08-03T11:45:06;1.23;;;0.50;;
67896;SDS011;54698;48.428;9.964;2022-08-03T11:47:35;2.40;;;0.80;;
67896;SDS011;54698;48.428;9.964;2022-08-03T11:50:05;4.57;;;1.33;;
67896;SDS011;54698;48.428;9.964;2022-08-03T11:52:36;2.38;;;0.80;;
67896;SDS011;54698;48.428;9.964;2022-08-03T11:57:48;1.88;;;0.70;;
67896;SDS011;54698;48.428;9.964;2022-08-03T12:00:24;5.50;;;0.90;;
67896;SDS011;54698;48.428;9.964;2022-08-03T12:02:54;2.22;;;0.70;;
67896;SDS011;54698;48.428;9.964;2022-08-03T12:05:37;2.13;;;0.80;;
67896;SDS011;54698;48.428;9.964;2022-08-03T12:08:06;1.58;;;0.68;;
67896;SDS011;54698;48.428;9.964;2022-08-03T12:10:34;3.75;;;0.90;;
67896;SDS011;54698;48.428;9.964;2022-08-03T12:13:02;2.50;;;1.00;;
67896;SDS011;54698;48.428;9.964;2022-08-03T12:15:31;1.85;;;0.77;;
67896;SDS011;54698;48.428;9.964;2022-08-03T12:17:57;1.92;;;0.77;;
67896;SDS011;54698;48.428;9.964;2022-08-03T12:20:23;3.58;;;1.27;;
67896;SDS011;54698;48.428;9.964;2022-08-03T12:22:52;2.33;;;0.73;;
67896;SDS011;54698;48.428;9.964;2022-08-03T12:25:19;2.10;;;0.80;;
67896;SDS011;54698;48.428;9.964;2022-08-03T12:27:48;1.88;;;0.75;;
67896;SDS011;54698;48.428;9.964;2022-08-03T12:30:14;3.30;;;1.23;;
67896;SDS011;54698;48.428;9.964;2022-08-03T12:32:41;1.98;;;0.73;;
67896;SDS011;54698;48.428;9.964;2022-08-03T12:35:07;1.23;;;0.60;;
67896;SDS011;54698;48.428;9.964;2022-08-03T12:37:34;2.13;;;0.77;;
67896;SDS011;54698;48.428;9.964;2022-08-03T12:40:02;4.28;;;0.70;;
67896;SDS011;54698;48.428;9.964;2022-08-03T12:42:33;1.63;;;0.60;;
67896;SDS011;54698;48.428;9.964;2022-08-03T12:47:52;5.53;;;0.80;;
67896;SDS011;54698;48.428;9.964;2022-08-03T12:50:24;3.35;;;0.80;;
67896;SDS011;54698;48.428;9.964;2022-08-03T12:52:51;2.40;;;0.80;;
67896;SDS011;54698;48.428;9.964;2022-08-03T12:55:20;2.03;;;0.68;;
67896;SDS011;54698;48.428;9.964;2022-08-03T12:57:47;3.63;;;0.65;;
67896;SDS011;54698;48.428;9.964;2022-08-03T13:00:14;2.00;;;0.80;;
67896;SDS011;54698;48.428;9.964;2022-08-03T13:02:41;2.45;;;0.70;;
67896;SDS011;54698;48.428;9.964;2022-08-03T13:05:08;2.13;;;0.73;;
67896;SDS011;54698;48.428;9.964;2022-08-03T13:07:38;2.78;;;0.90;;
67896;SDS011;54698;48.428;9.964;2022-08-03T13:10:05;4.63;;;0.82;;
67896;SDS011;54698;48.428;9.964;2022-08-03T13:12:44;2.67;;;0.80;;
67896;SDS011;54698;48.428;9.964;2022-08-03T13:15:10;3.45;;;0.80;;
67896;SDS011;54698;48.428;9.964;2022-08-03T13:17:36;2.90;;;0.85;;
67896;SDS011;54698;48.428;9.964;2022-08-03T13:20:02;2.60;;;1.00;;
67896;SDS011;54698;48.428;9.964;2022-08-03T13:22:30;3.30;;;1.10;;
67896;SDS011;54698;48.428;9.964;2022-08-03T13:24:55;4.22;;;0.75;;
67896;SDS011;54698;48.428;9.964;2022-08-03T13:27:22;8.55;;;1.05;;
67896;SDS011;54698;48.428;9.964;2022-08-03T13:29:49;3.67;;;0.85;;
67896;SDS011;54698;48.428;9.964;2022-08-03T13:32:15;5.45;;;1.00;;
67896;SDS011;54698;48.428;9.964;2022-08-03T13:34:41;5.00;;;0.82;;
67896;SDS011;54698;48.428;9.964;2022-08-03T13:37:07;2.50;;;0.90;;
67896;SDS011;54698;48.428;9.964;2022-08-03T13:39:40;2.08;;;0.70;;
67896;SDS011;54698;48.428;9.964;2022-08-03T13:42:07;2.80;;;1.00;;
67896;SDS011;54698;48.428;9.964;2022-08-03T13:44:33;2.47;;;0.73;;
67896;SDS011;54698;48.428;9.964;2022-08-03T13:47:00;1.67;;;0.63;;
67896;SDS011;54698;48.428;9.964;2022-08-03T13:49:26;5.35;;;1.38;;
67896;SDS011;54698;48.428;9.964;2022-08-03T13:51:52;1.98;;;0.70;;
67896;SDS011;54698;48.428;9.964;2022-08-03T13:54:18;2.97;;;0.90;;
67896;SDS011;54698;48.428;9.964;2022-08-03T13:56:44;2.35;;;0.98;;
67896;SDS011;54698;48.428;9.964;2022-08-03T13:59:10;2.03;;;0.80;;
67896;SDS011;54698;48.428;9.964;2022-08-03T14:01:36;2.70;;;0.88;;
67896;SDS011;54698;48.428;9.964;2022-08-03T14:04:03;2.78;;;0.90;;
67896;SDS011;54698;48.428;9.964;2022-08-03T14:06:29;3.50;;;0.90;;
67896;SDS011;54698;48.428;9.964;2022-08-03T14:08:55;3.28;;;0.90;;
67896;SDS011;54698;48.428;9.964;2022-08-03T14:11:20;1.85;;;0.75;;
67896;SDS011;54698;48.428;9.964;2022-08-03T14:13:46;2.58;;;0.77;;
67896;SDS011;54698;48.428;9.964;2022-08-03T14:16:12;2.97;;;0.82;;
67896;SDS011;54698;48.428;9.964;2022-08-03T14:18:38;1.67;;;0.70;;
67896;SDS011;54698;48.428;9.964;2022-08-03T14:21:05;2.42;;;0.75;;
67896;SDS011;54698;48.428;9.964;2022-08-03T14:23:31;1.92;;;0.75;;
67896;SDS011;54698;48.428;9.964;2022-08-03T14:25:57;1.73;;;0.70;;
67896;SDS011;54698;48.428;9.964;2022-08-03T14:28:23;7.63;;;1.42;;
67896;SDS011;54698;48.428;9.964;2022-08-03T14:30:49;1.73;;;0.68;;
67896;SDS011;54698;48.428;9.964;2022-08-03T14:33:16;2.42;;;0.80;;
67896;SDS011;54698;48.428;9.964;2022-08-03T14:35:42;2.40;;;0.80;;
67896;SDS011;54698;48.428;9.964;2022-08-03T14:38:09;3.10;;;0.80;;
67896;SDS011;54698;48.428;9.964;2022-08-03T14:40:35;2.85;;;0.98;;
67896;SDS011;54698;48.428;9.964;2022-08-03T14:43:01;2.17;;;0.70;;
67896;SDS011;54698;48.428;9.964;2022-08-03T14:45:27;2.35;;;0.70;;
67896;SDS011;54698;48.428;9.964;2022-08-03T14:47:53;4.65;;;0.88;;
67896;SDS011;54698;48.428;9.964;2022-08-03T14:50:19;3.80;;;0.90;;
67896;SDS011;54698;48.428;9.964;2022-08-03T14:52:45;3.58;;;1.50;;
67896;SDS011;54698;48.428;9.964;2022-08-03T14:55:12;2.72;;;0.70;;
67896;SDS011;54698;48.428;9.964;2022-08-03T14:57:38;7.95;;;1.02;;
67896;SDS011;54698;48.428;9.964;2022-08-03T15:00:04;2.78;;;0.82;;
67896;SDS011;54698;48.428;9.964;2022-08-03T15:02:31;2.85;;;0.90;;
67896;SDS011;54698;48.428;9.964;2022-08-03T15:04:57;2.38;;;0.80;;
67896;SDS011;54698;48.428;9.964;2022-08-03T15:07:22;2.33;;;0.80;;
67896;SDS011;54698;48.428;9.964;2022-08-03T15:09:48;3.78;;;1.10;;
67896;SDS011;54698;48.428;9.964;2022-08-03T15:12:15;2.97;;;0.80;;
67896;SDS011;54698;48.428;9.964;2022-08-03T15:14:41;2.22;;;0.80;;
67896;SDS011;54698;48.428;9.964;2022-08-03T15:17:07;3.25;;;0.95;;
67896;SDS011;54698;48.428;9.964;2022-08-03T15:19:33;2.00;;;0.82;;
67896;SDS011;54698;48.428;9.964;2022-08-03T15:21:59;1.75;;;0.70;;